createdAt,value
2022-09-15T00:02:08.495Z,76.34
2022-09-15T00:05:13.033Z,76.41
2022-09-15T00:08:15.903Z,76.44
2022-09-15T00:11:21.223Z,76.44
2022-09-15T00:14:25.497Z,76.24
2022-09-15T00:17:29.297Z,76.95
2022-09-15T00:20:31.868Z,76.70
2022-09-15T00:23:34.840Z,77.15
2022-09-15T00:26:37.655Z,77.23
2022-09-15T00:29:41.682Z,77.46
2022-09-15T00:32:44.214Z,77.56
2022-09-15T00:35:49.445Z,77.34
2022-09-15T00:38:52.238Z,78.12
2022-09-15T00:41:54.984Z,77.67
2022-09-15T00:45:01.874Z,77.40
2022-09-15T00:48:05.537Z,77.08
2022-09-15T00:51:09.845Z,77.01
2022-09-15T00:54:17.240Z,77.06
2022-09-15T00:57:24.169Z,77.50
2022-09-15T01:00:29.370Z,77.45
2022-09-15T01:03:34.280Z,77.41
2022-09-15T01:06:40.081Z,77.47
2022-09-15T01:09:49.451Z,77.34
2022-09-15T01:12:53.405Z,77.91
2022-09-15T01:16:14.005Z,77.80
2022-09-15T01:19:40.647Z,78.01
2022-09-15T01:22:55.269Z,77.85
2022-09-15T01:26:37.834Z,77.87
2022-09-15T01:29:53.262Z,77.80
2022-09-15T01:33:09.862Z,77.73
2022-09-15T01:36:18.316Z,77.69
2022-09-15T01:39:26.257Z,77.71
2022-09-15T01:42:30.560Z,77.33
2022-09-15T01:45:35.780Z,77.22
2022-09-15T01:48:39.463Z,77.02
2022-09-15T01:51:44.890Z,77.03
2022-09-15T01:54:51.393Z,77.26
2022-09-15T01:57:54.125Z,77.78
2022-09-15T02:01:01.717Z,78.20
2022-09-15T02:04:09.842Z,79.65
2022-09-15T02:07:21.535Z,79.27
2022-09-15T02:10:32.799Z,79.22
2022-09-15T02:13:45.162Z,78.88
2022-09-15T02:16:53.719Z,78.65
2022-09-15T02:20:04.189Z,78.74
2022-09-15T02:23:10.757Z,77.97
2022-09-15T02:26:18.288Z,78.70
2022-09-15T02:29:22.943Z,78.89
2022-09-15T02:32:29.653Z,78.13
2022-09-15T02:35:35.935Z,79.03
2022-09-15T02:38:44.514Z,78.90
2022-09-15T02:41:47.304Z,79.71
2022-09-15T02:44:50.013Z,79.94
2022-09-15T02:47:53.943Z,80.02
2022-09-15T02:50:56.610Z,79.49
2022-09-15T02:53:59.215Z,79.58
2022-09-15T02:57:01.921Z,79.38
2022-09-15T03:00:16.256Z,79.80
2022-09-15T03:03:21.954Z,79.64
2022-09-15T03:06:25.622Z,79.91
2022-09-15T03:09:28.225Z,78.87
2022-09-15T03:12:30.810Z,79.85
2022-09-15T03:15:33.373Z,79.70
2022-09-15T03:18:37.677Z,79.40
2022-09-15T03:21:40.363Z,79.12
2022-09-15T03:24:43.190Z,78.81
2022-09-15T03:27:46.137Z,79.08
2022-09-15T03:30:48.821Z,78.61
2022-09-15T03:33:56.295Z,78.48
2022-09-15T03:36:58.867Z,78.43
2022-09-15T03:40:01.622Z,79.24
2022-09-15T03:43:04.263Z,78.01
2022-09-15T03:46:09.062Z,79.14
2022-09-15T03:49:13.442Z,78.61
2022-09-15T03:52:16.122Z,79.22
2022-09-15T03:55:18.807Z,78.83
2022-09-15T03:58:21.397Z,78.85
2022-09-15T04:01:24.758Z,78.90
2022-09-15T04:04:28.823Z,78.94
2022-09-15T04:07:31.506Z,79.47
2022-09-15T04:10:34.991Z,78.59
2022-09-15T04:13:38.779Z,78.44
2022-09-15T04:16:41.415Z,79.49
2022-09-15T04:19:45.712Z,79.30
2022-09-15T04:22:48.422Z,79.63
2022-09-15T04:25:57.959Z,79.56
2022-09-15T04:29:04.467Z,79.25
2022-09-15T04:32:07.869Z,79.53
2022-09-15T04:35:12.244Z,79.59
2022-09-15T04:38:14.842Z,80.23
2022-09-15T04:41:18.643Z,79.85
2022-09-15T04:44:21.615Z,80.58
2022-09-15T04:47:24.171Z,80.60
2022-09-15T04:50:28.294Z,80.09
2022-09-15T04:53:31.126Z,80.57
2022-09-15T04:56:34.013Z,80.63
2022-09-15T04:59:36.849Z,80.49
2022-09-15T05:02:39.549Z,79.73
2022-09-15T05:05:43.469Z,80.13
2022-09-15T05:08:48.380Z,80.94
2022-09-15T05:11:50.930Z,80.44
2022-09-15T05:14:53.631Z,80.09
2022-09-15T05:17:56.198Z,80.20
2022-09-15T05:21:01.276Z,80.68
2022-09-15T05:24:03.870Z,79.09
2022-09-15T05:27:06.918Z,80.61
2022-09-15T05:30:35.972Z,80.15
2022-09-15T05:33:33.541Z,80.25
2022-09-15T05:36:37.599Z,80.01
2022-09-15T05:39:41.031Z,80.50
2022-09-15T05:42:43.737Z,80.29
2022-09-15T05:45:54.971Z,80.19
2022-09-15T05:48:59.897Z,79.32
2022-09-15T05:52:04.302Z,80.47
2022-09-15T05:55:07.336Z,79.99
2022-09-15T05:58:10.016Z,80.51
2022-09-15T06:01:15.594Z,80.64
2022-09-15T06:04:18.206Z,79.76
2022-09-15T06:07:22.264Z,79.01
2022-09-15T06:10:25.220Z,78.72
2022-09-15T06:13:27.906Z,79.23
2022-09-15T06:16:33.865Z,75.97
2022-09-15T06:19:36.687Z,74.39
2022-09-15T06:22:40.915Z,75.37
2022-09-15T06:25:43.649Z,75.49
2022-09-15T06:28:50.147Z,76.71
2022-09-15T06:31:52.869Z,75.97
2022-09-15T06:34:55.464Z,75.89
2022-09-15T06:37:59.515Z,74.93
2022-09-15T06:41:02.081Z,75.86
2022-09-15T06:44:04.783Z,75.09
2022-09-15T06:47:07.565Z,74.79
2022-09-15T06:50:10.692Z,74.90
2022-09-15T06:53:15.156Z,74.88
2022-09-15T06:56:19.999Z,74.68
2022-09-15T06:59:24.033Z,74.37
2022-09-15T07:02:26.757Z,75.75
2022-09-15T07:05:30.666Z,75.09
2022-09-15T07:08:34.841Z,74.37
2022-09-15T07:11:37.715Z,74.22
2022-09-15T07:14:40.259Z,72.64
2022-09-15T07:17:42.958Z,74.42
2022-09-15T07:20:45.575Z,74.09
2022-09-15T07:23:50.094Z,73.10
2022-09-15T07:26:52.990Z,72.43
2022-09-15T07:29:55.646Z,73.51
2022-09-15T07:32:58.202Z,72.88
2022-09-15T07:36:01.980Z,72.01
2022-09-15T07:39:07.017Z,70.47
2022-09-15T07:42:09.736Z,72.09
2022-09-15T07:45:12.832Z,71.35
2022-09-15T07:48:15.526Z,70.36
2022-09-15T07:51:18.632Z,70.27
2022-09-15T07:54:23.138Z,69.50
2022-09-15T07:57:26.807Z,69.75
2022-09-15T08:00:29.616Z,70.10
2022-09-15T08:03:32.392Z,67.31
2022-09-15T08:06:36.361Z,67.56
2022-09-15T08:09:41.515Z,69.08
2022-09-15T08:12:44.373Z,66.53
2022-09-15T08:15:47.142Z,65.56
2022-09-15T08:18:51.213Z,63.43
2022-09-15T08:21:53.849Z,64.29
2022-09-15T08:24:57.888Z,65.75
2022-09-15T08:28:00.550Z,66.64
2022-09-15T08:31:05.476Z,66.36
2022-09-15T08:34:08.283Z,66.80
2022-09-15T08:37:10.892Z,66.00
2022-09-15T08:40:18.543Z,65.37
2022-09-15T08:43:26.646Z,65.60
2022-09-15T08:46:36.104Z,66.06
2022-09-15T08:49:52.008Z,65.17
2022-09-15T08:53:01.526Z,66.46
2022-09-15T08:56:14.884Z,65.38
2022-09-15T08:59:18.784Z,65.38
2022-09-15T09:02:56.041Z,66.23
2022-09-15T09:06:01.966Z,64.14
2022-09-15T09:09:13.504Z,62.40
2022-09-15T09:12:37.085Z,61.90
2022-09-15T09:15:54.166Z,60.90
2022-09-15T09:19:32.252Z,60.71
2022-09-15T09:22:39.185Z,60.11
2022-09-15T09:25:42.814Z,58.73
2022-09-15T09:28:55.277Z,59.43
2022-09-15T09:32:00.044Z,57.65
2022-09-15T09:35:06.246Z,56.50
2022-09-15T09:38:10.406Z,54.93
2022-09-15T09:41:16.105Z,55.10
2022-09-15T09:44:20.503Z,54.59
2022-09-15T09:47:28.190Z,52.71
2022-09-15T09:50:36.525Z,50.20
2022-09-15T09:53:39.159Z,52.11
2022-09-15T09:56:41.902Z,52.86
2022-09-15T09:59:47.341Z,53.73
2022-09-15T10:02:50.328Z,53.89
2022-09-15T10:06:04.982Z,53.87
2022-09-15T10:09:14.447Z,53.01
2022-09-15T10:12:35.393Z,52.25
2022-09-15T10:18:41.945Z,52.52
2022-09-15T10:21:44.502Z,52.78
2022-09-15T10:24:47.376Z,51.69
2022-09-15T10:28:11.843Z,51.46
2022-09-15T10:31:29.741Z,50.75
2022-09-15T10:34:33.017Z,50.83
2022-09-15T10:37:41.584Z,50.21
2022-09-15T10:40:53.008Z,51.46
2022-09-15T10:44:26.843Z,52.02
2022-09-15T10:47:43.573Z,53.33
2022-09-15T10:50:55.832Z,52.79
2022-09-15T10:54:11.653Z,51.93
2022-09-15T11:00:41.602Z,51.39
2022-09-15T11:04:08.921Z,48.51
2022-09-15T11:07:17.669Z,46.43
2022-09-15T11:10:27.004Z,49.49
2022-09-15T11:13:39.776Z,49.97
2022-09-15T11:16:56.460Z,50.13
2022-09-15T11:20:13.338Z,50.77
2022-09-15T11:23:21.461Z,51.36
2022-09-15T11:26:31.782Z,51.74
2022-09-15T11:29:53.427Z,50.37
2022-09-15T11:33:02.300Z,50.11
2022-09-15T11:36:14.504Z,51.48
2022-09-15T11:39:24.035Z,51.83
2022-09-15T11:42:34.326Z,51.40
2022-09-15T11:45:45.310Z,51.79
2022-09-15T11:48:56.371Z,52.76
2022-09-15T11:52:07.417Z,52.57
2022-09-15T11:55:19.724Z,52.32
2022-09-15T11:58:29.500Z,50.45
2022-09-15T12:01:38.366Z,50.74
2022-09-15T12:04:48.983Z,50.84
2022-09-15T12:07:59.429Z,48.58
2022-09-15T12:11:07.348Z,47.20
2022-09-15T12:14:15.344Z,46.34
2022-09-15T12:17:27.562Z,46.85
2022-09-15T12:20:36.938Z,44.90
2022-09-15T12:23:44.049Z,44.21
2022-09-15T12:26:47.573Z,44.57
2022-09-15T12:29:51.180Z,44.21
2022-09-15T12:32:57.742Z,45.04
2022-09-15T12:36:45.790Z,46.42
2022-09-15T12:39:50.188Z,48.98
2022-09-15T12:42:53.122Z,49.11
2022-09-15T12:45:58.234Z,49.08
2022-09-15T12:49:03.348Z,48.36
2022-09-15T12:52:08.472Z,48.90
2022-09-15T12:55:20.195Z,47.53
2022-09-15T12:58:30.283Z,44.89
2022-09-15T13:01:46.722Z,43.86
2022-09-15T13:04:55.419Z,44.06
2022-09-15T13:07:58.776Z,44.66
2022-09-15T13:11:05.949Z,43.86
2022-09-15T13:14:27.930Z,45.96
2022-09-15T13:17:31.847Z,47.21
2022-09-15T13:20:39.387Z,46.39
2022-09-15T13:23:45.787Z,47.70
2022-09-15T13:26:57.602Z,48.93
2022-09-15T13:30:11.193Z,48.15
2022-09-15T13:40:52.949Z,47.18
2022-09-15T13:44:25.427Z,47.08
2022-09-15T13:47:38.990Z,47.13
2022-09-15T13:50:44.126Z,46.84
2022-09-15T13:53:50.763Z,47.65
2022-09-15T13:56:53.594Z,47.28
2022-09-15T13:59:56.247Z,47.48
2022-09-15T14:03:03.244Z,47.21
2022-09-15T14:06:13.928Z,47.40
2022-09-15T14:09:19.900Z,45.90
2022-09-15T14:12:22.704Z,45.51
2022-09-15T14:15:26.875Z,45.26
2022-09-15T14:18:43.418Z,44.95
2022-09-15T14:21:49.150Z,45.24
2022-09-15T14:24:52.163Z,44.56
2022-09-15T14:27:56.544Z,44.45
2022-09-15T14:30:59.690Z,44.41
2022-09-15T14:34:06.919Z,46.05
2022-09-15T14:37:19.813Z,47.98
2022-09-15T14:40:29.082Z,48.29
2022-09-15T14:43:35.475Z,49.18
2022-09-15T14:46:38.549Z,49.65
2022-09-15T14:49:42.484Z,50.20
2022-09-15T14:52:51.343Z,50.62
2022-09-15T14:55:58.204Z,50.26
2022-09-15T14:59:05.885Z,50.42
2022-09-15T15:02:22.495Z,49.92
2022-09-15T15:05:31.580Z,49.78
2022-09-15T15:08:38.723Z,50.77
2022-09-15T15:11:43.183Z,50.27
2022-09-15T15:14:46.012Z,51.19
2022-09-15T15:17:50.952Z,50.28
2022-09-15T15:20:54.881Z,50.77
2022-09-15T15:23:57.692Z,50.96
2022-09-15T15:27:27.373Z,51.08
2022-09-15T15:30:44.704Z,52.24
2022-09-15T15:33:49.549Z,51.94
2022-09-15T15:37:03.283Z,52.06
2022-09-15T15:40:14.873Z,52.34
2022-09-15T15:43:24.150Z,52.40
2022-09-15T15:46:45.972Z,52.14
2022-09-15T15:50:11.684Z,51.52
2022-09-15T15:53:12.576Z,51.74
2022-09-15T15:56:15.181Z,52.68
2022-09-15T15:59:18.442Z,52.92
2022-09-15T16:02:21.364Z,51.41
2022-09-15T16:05:27.847Z,51.91
2022-09-15T16:08:34.261Z,52.73
2022-09-15T16:11:36.859Z,53.87
2022-09-15T16:14:39.472Z,54.11
2022-09-15T16:17:46.011Z,54.32
2022-09-15T16:20:49.884Z,54.56
2022-09-15T16:23:54.269Z,54.77
2022-09-15T16:26:56.846Z,54.67
2022-09-15T16:29:59.401Z,55.17
2022-09-15T16:33:02.247Z,55.87
2022-09-15T16:36:06.982Z,56.01
2022-09-15T16:39:11.161Z,55.37
2022-09-15T16:42:13.749Z,56.32
2022-09-15T16:45:23.859Z,57.16
2022-09-15T16:48:27.222Z,57.23
2022-09-15T16:51:31.551Z,57.66
2022-09-15T16:54:35.885Z,56.96
2022-09-15T16:57:38.431Z,57.37
2022-09-15T17:00:41.300Z,58.05
2022-09-15T17:03:44.137Z,58.59
2022-09-15T17:06:47.026Z,59.47
2022-09-15T17:09:52.861Z,59.78
2022-09-15T17:12:55.549Z,60.88
2022-09-15T17:15:59.200Z,60.99
2022-09-15T17:19:01.925Z,60.77
2022-09-15T17:22:04.683Z,60.82
2022-09-15T17:25:20.274Z,60.58
2022-09-15T17:28:25.175Z,60.95
2022-09-15T17:31:28.084Z,61.04
2022-09-15T17:34:30.923Z,61.14
2022-09-15T17:37:33.732Z,61.59
2022-09-15T17:40:38.006Z,61.84
2022-09-15T17:43:40.716Z,62.16
2022-09-15T17:46:43.335Z,61.86
2022-09-15T17:49:46.086Z,62.76
2022-09-15T17:52:49.153Z,62.57
2022-09-15T17:55:54.516Z,62.75
2022-09-15T17:58:57.239Z,62.41
2022-09-15T18:01:59.848Z,62.73
2022-09-15T18:05:02.783Z,62.32
2022-09-15T18:08:06.868Z,62.42
2022-09-15T18:11:14.957Z,62.79
2022-09-15T18:14:17.652Z,63.15
2022-09-15T18:17:20.244Z,63.43
2022-09-15T18:20:24.659Z,63.52
2022-09-15T18:23:29.707Z,64.06
2022-09-15T18:26:33.841Z,64.08
2022-09-15T18:29:36.551Z,64.71
2022-09-15T18:32:39.473Z,64.87
2022-09-15T18:35:42.526Z,64.26
2022-09-15T18:38:45.128Z,64.95
2022-09-15T18:44:57.470Z,65.41
2022-09-15T18:48:00.184Z,64.98
2022-09-15T18:51:02.787Z,65.87
2022-09-15T18:54:05.703Z,65.76
2022-09-15T18:57:09.816Z,66.21
2022-09-15T19:00:15.394Z,66.12
2022-09-15T19:03:18.422Z,66.21
2022-09-15T19:06:21.073Z,67.21
2022-09-15T19:09:23.666Z,67.73
2022-09-15T19:12:27.794Z,67.59
2022-09-15T19:15:33.783Z,67.61
2022-09-15T19:18:37.163Z,67.59
2022-09-15T19:21:39.932Z,68.12
2022-09-15T19:24:42.791Z,67.85
2022-09-15T19:27:47.999Z,67.51
2022-09-15T19:30:50.666Z,67.73
2022-09-15T19:33:53.766Z,67.30
2022-09-15T19:36:56.887Z,67.53
2022-09-15T19:39:59.722Z,67.57
2022-09-15T19:43:03.960Z,67.83
2022-09-15T19:46:12.812Z,67.14
2022-09-15T19:49:15.982Z,67.05
2022-09-15T19:52:18.676Z,67.13
2022-09-15T19:55:21.736Z,66.61
2022-09-15T19:58:26.024Z,67.40
2022-09-15T20:01:30.470Z,67.07
2022-09-15T20:04:33.641Z,67.01
2022-09-15T20:07:36.310Z,67.46
2022-09-15T20:10:40.370Z,66.91
2022-09-15T20:13:44.894Z,66.98
2022-09-15T20:16:47.644Z,67.69
2022-09-15T20:19:50.424Z,66.62
2022-09-15T20:22:54.418Z,66.17
2022-09-15T20:25:58.478Z,66.72
2022-09-15T20:29:03.875Z,66.50
2022-09-15T20:32:06.678Z,66.97
2022-09-15T20:35:10.235Z,66.57
2022-09-15T20:38:12.913Z,67.12
2022-09-15T20:41:18.102Z,66.84
2022-09-15T20:44:22.024Z,67.37
2022-09-15T20:47:24.937Z,67.49
2022-09-15T20:50:27.721Z,67.95
2022-09-15T20:53:30.447Z,68.11
2022-09-15T20:56:35.593Z,68.52
2022-09-15T20:59:39.586Z,68.34
2022-09-15T21:02:42.475Z,68.64
2022-09-15T21:05:45.469Z,68.25
2022-09-15T21:08:48.907Z,68.84
2022-09-15T21:11:53.646Z,69.04
2022-09-15T21:14:57.855Z,69.10
2022-09-15T21:18:00.508Z,69.51
2022-09-15T21:21:05.528Z,70.10
2022-09-15T21:24:09.741Z,70.52
2022-09-15T21:27:27.962Z,70.65
2022-09-15T21:30:31.935Z,70.22
2022-09-15T21:33:35.076Z,70.38
2022-09-15T21:36:37.767Z,69.74
2022-09-15T21:39:40.411Z,69.14
2022-09-15T21:42:43.143Z,70.50
2022-09-15T21:45:47.128Z,70.76
2022-09-15T21:48:50.742Z,70.79
2022-09-15T21:51:53.289Z,71.08
2022-09-15T21:54:55.991Z,70.48
2022-09-15T21:57:58.673Z,69.81
2022-09-15T22:01:10.748Z,70.20
2022-09-15T22:04:13.494Z,70.55
2022-09-15T22:07:19.326Z,70.91
2022-09-15T22:10:22.025Z,70.74
2022-09-15T22:13:24.623Z,71.34
2022-09-15T22:16:28.731Z,71.73
2022-09-15T22:19:31.479Z,71.15
2022-09-15T22:22:44.223Z,71.24
2022-09-15T22:25:46.894Z,71.65
2022-09-15T22:28:50.010Z,71.16
2022-09-15T22:31:54.080Z,71.05
2022-09-15T22:34:57.115Z,72.40
2022-09-15T22:37:59.683Z,71.59
2022-09-15T22:41:05.469Z,71.37
2022-09-15T22:44:17.677Z,72.09
2022-09-15T22:47:21.742Z,71.67
2022-09-15T22:50:24.432Z,71.47
2022-09-15T22:53:27.485Z,72.00
2022-09-15T22:56:30.820Z,72.99
2022-09-15T22:59:33.369Z,72.13
2022-09-15T23:02:37.455Z,72.14
2022-09-15T23:05:40.217Z,72.56
2022-09-15T23:08:42.823Z,71.85
2022-09-15T23:11:45.433Z,71.99
2022-09-15T23:14:48.034Z,71.56
2022-09-15T23:17:52.221Z,71.59
2022-09-15T23:20:59.021Z,71.58
2022-09-15T23:24:01.889Z,71.76
2022-09-15T23:27:05.133Z,71.41
2022-09-15T23:30:09.036Z,71.78
2022-09-15T23:33:12.956Z,71.15
2022-09-15T23:36:19.476Z,72.45
2022-09-15T23:39:22.537Z,73.04
2022-09-15T23:42:25.237Z,72.72
2022-09-15T23:45:27.787Z,72.31
2022-09-15T23:48:32.691Z,70.49
2022-09-15T23:51:35.603Z,71.61
2022-09-15T23:54:38.272Z,71.55
2022-09-15T23:57:41.003Z,70.64
